createdAt,value
2019-03-18T00:00:34.236Z,75.95
2019-03-18T00:03:02.729Z,76.09
2019-03-18T00:05:35.035Z,75.93
2019-03-18T00:08:07.289Z,76.15
2019-03-18T00:10:36.007Z,76.15
2019-03-18T00:13:04.710Z,76.36
2019-03-18T00:15:33.211Z,76.33
2019-03-18T00:18:01.690Z,76.74
2019-03-18T00:20:30.087Z,76.35
2019-03-18T00:22:58.477Z,76.41
2019-03-18T00:25:26.966Z,76.53
2019-03-18T00:27:55.419Z,76.28
2019-03-18T00:30:23.793Z,76.64
2019-03-18T00:32:52.203Z,76.51
2019-03-18T00:35:20.626Z,77.04
2019-03-18T00:37:49.036Z,77.01
2019-03-18T00:40:21.016Z,77.10
2019-03-18T00:42:49.692Z,77.07
2019-03-18T00:45:19.245Z,77.35
2019-03-18T00:47:47.833Z,77.53
2019-03-18T00:50:17.394Z,77.25
2019-03-18T00:52:49.778Z,77.23
2019-03-18T00:55:17.474Z,77.48
2019-03-18T00:57:45.837Z,77.18
2019-03-18T01:00:17.161Z,77.11
2019-03-18T01:02:49.293Z,77.12
2019-03-18T01:05:16.763Z,76.11
2019-03-18T01:07:45.180Z,76.50
2019-03-18T01:10:17.479Z,76.48
2019-03-18T01:12:45.909Z,76.27
2019-03-18T01:15:26.865Z,76.09
2019-03-18T01:17:46.036Z,75.75
2019-03-18T01:20:15.258Z,75.81
2019-03-18T01:22:44.225Z,76.18
2019-03-18T01:25:12.784Z,75.61
2019-03-18T01:27:41.537Z,75.58
2019-03-18T01:30:11.969Z,75.76
2019-03-18T01:32:41.585Z,75.91
2019-03-18T01:35:11.133Z,75.33
2019-03-18T01:37:39.556Z,75.70
2019-03-18T01:40:10.431Z,76.10
2019-03-18T01:42:38.924Z,76.53
2019-03-18T01:45:09.092Z,77.60
2019-03-18T01:47:37.504Z,77.50
2019-03-18T01:50:09.083Z,77.20
2019-03-18T01:52:37.485Z,77.27
2019-03-18T01:55:07.044Z,77.11
2019-03-18T01:57:35.443Z,77.18
2019-03-18T02:00:05.916Z,77.35
2019-03-18T02:02:34.346Z,77.09
2019-03-18T02:05:02.737Z,77.83
2019-03-18T02:07:33.260Z,77.53
2019-03-18T02:10:01.650Z,77.36
2019-03-18T02:12:30.059Z,78.96
2019-03-18T02:14:58.463Z,78.58
2019-03-18T02:17:30.317Z,79.26
2019-03-18T02:19:57.966Z,79.46
2019-03-18T02:22:26.317Z,79.12
2019-03-18T02:24:56.716Z,79.12
2019-03-18T02:27:24.862Z,78.98
2019-03-18T02:29:53.265Z,79.56
2019-03-18T02:32:21.634Z,79.96
2019-03-18T02:34:50.046Z,79.94
2019-03-18T02:37:18.471Z,79.56
2019-03-18T02:39:49.292Z,79.88
2019-03-18T02:42:17.096Z,79.89
2019-03-18T02:44:45.493Z,80.32
2019-03-18T02:47:13.915Z,80.02
2019-03-18T02:49:42.333Z,80.31
2019-03-18T02:52:10.776Z,80.43
2019-03-18T02:54:39.155Z,80.66
2019-03-18T02:57:07.590Z,80.82
2019-03-18T02:59:36.003Z,80.79
2019-03-18T03:02:05.684Z,80.89
2019-03-18T03:04:34.071Z,81.08
2019-03-18T03:07:02.515Z,81.03
2019-03-18T03:09:30.915Z,80.68
2019-03-18T03:11:59.303Z,80.67
2019-03-18T03:14:27.814Z,80.96
2019-03-18T03:16:57.282Z,80.96
2019-03-18T03:19:25.700Z,80.86
2019-03-18T03:21:54.214Z,80.54
2019-03-18T03:24:22.627Z,80.34
2019-03-18T03:26:51.039Z,80.54
2019-03-18T03:29:19.452Z,80.12
2019-03-18T03:31:47.854Z,80.15
2019-03-18T03:34:16.250Z,80.09
2019-03-18T03:36:44.648Z,80.13
2019-03-18T03:39:13.069Z,80.06
2019-03-18T03:41:41.491Z,80.10
2019-03-18T03:44:09.906Z,79.52
2019-03-18T03:46:43.425Z,79.07
2019-03-18T03:49:11.416Z,79.41
2019-03-18T03:51:39.835Z,79.75
2019-03-18T03:54:09.406Z,79.85
2019-03-18T03:56:37.978Z,80.00
2019-03-18T03:59:06.356Z,80.06
2019-03-18T04:01:36.985Z,79.92
2019-03-18T04:04:06.528Z,80.16
2019-03-18T04:06:35.037Z,80.50
2019-03-18T04:09:05.171Z,80.14
2019-03-18T04:11:33.560Z,80.74
2019-03-18T04:14:01.955Z,81.01
2019-03-18T04:16:31.302Z,80.69
2019-03-18T04:18:59.719Z,80.78
2019-03-18T04:21:28.127Z,81.11
2019-03-18T04:24:00.005Z,81.71
2019-03-18T04:26:28.681Z,81.52
2019-03-18T04:28:57.065Z,82.01
2019-03-18T04:31:25.465Z,81.71
2019-03-18T04:33:53.874Z,81.56
2019-03-18T04:36:23.344Z,81.55
2019-03-18T04:38:52.845Z,81.44
2019-03-18T04:41:21.247Z,81.20
2019-03-18T04:43:52.129Z,81.35
2019-03-18T04:46:20.529Z,81.14
2019-03-18T04:48:50.400Z,81.21
2019-03-18T04:51:22.850Z,81.45
2019-03-18T04:53:51.279Z,81.32
2019-03-18T04:56:23.333Z,81.68
2019-03-18T04:58:51.983Z,81.49
2019-03-18T05:01:21.195Z,81.90
2019-03-18T05:03:51.926Z,81.76
2019-03-18T05:06:20.606Z,81.60
2019-03-18T05:08:49.011Z,81.31
2019-03-18T05:11:17.427Z,81.60
2019-03-18T05:13:45.898Z,81.58
2019-03-18T05:16:14.246Z,81.17
2019-03-18T05:18:42.681Z,79.02
2019-03-18T05:21:15.813Z,78.43
2019-03-18T05:23:44.211Z,78.75
2019-03-18T05:26:15.922Z,80.11
2019-03-18T05:28:44.324Z,81.29
2019-03-18T05:31:12.714Z,81.54
2019-03-18T05:33:42.063Z,81.72
2019-03-18T05:36:10.465Z,81.51
2019-03-18T05:38:38.877Z,81.68
2019-03-18T05:41:07.285Z,81.25
2019-03-18T05:43:35.699Z,81.62
2019-03-18T05:46:04.167Z,81.62
2019-03-18T05:48:33.519Z,81.84
2019-03-18T05:51:01.905Z,81.91
2019-03-18T05:53:31.465Z,81.75
2019-03-18T05:56:03.435Z,81.28
2019-03-18T05:58:32.930Z,80.77
2019-03-18T06:01:01.376Z,80.82
2019-03-18T06:03:32.170Z,81.58
2019-03-18T06:06:00.540Z,81.08
2019-03-18T06:08:31.700Z,80.82
2019-03-18T06:11:00.121Z,80.92
2019-03-18T06:13:29.545Z,81.34
2019-03-18T06:15:58.003Z,80.72
2019-03-18T06:18:27.420Z,81.11
2019-03-18T06:20:57.947Z,81.53
2019-03-18T06:23:26.336Z,81.02
2019-03-18T06:25:54.728Z,81.23
2019-03-18T06:28:23.209Z,81.15
2019-03-18T06:30:51.597Z,81.21
2019-03-18T06:33:22.256Z,81.03
2019-03-18T06:35:52.897Z,80.92
2019-03-18T06:38:21.302Z,80.54
2019-03-18T06:40:51.031Z,80.29
2019-03-18T06:43:19.445Z,80.10
2019-03-18T06:45:47.822Z,80.02
2019-03-18T06:48:24.458Z,80.24
2019-03-18T06:50:53.844Z,79.84
2019-03-18T06:53:22.181Z,79.94
2019-03-18T06:55:50.584Z,79.89
2019-03-18T06:58:19.756Z,80.33
2019-03-18T07:00:50.768Z,80.05
2019-03-18T07:03:19.406Z,80.48
2019-03-18T07:05:47.813Z,80.91
2019-03-18T07:08:16.207Z,80.71
2019-03-18T07:10:44.688Z,80.66
2019-03-18T07:13:13.063Z,81.10
2019-03-18T07:15:41.652Z,80.33
2019-03-18T07:18:18.698Z,80.43
2019-03-18T07:20:49.774Z,80.44
2019-03-18T07:23:18.582Z,80.00
2019-03-18T07:25:47.165Z,79.93
2019-03-18T07:28:18.051Z,79.47
2019-03-18T07:30:45.692Z,78.77
2019-03-18T07:33:14.096Z,78.64
2019-03-18T07:35:44.609Z,78.05
2019-03-18T07:38:14.127Z,77.82
2019-03-18T07:40:42.524Z,76.87
2019-03-18T07:43:15.002Z,76.58
2019-03-18T07:45:42.651Z,76.75
2019-03-18T07:48:12.555Z,76.29
2019-03-18T07:50:41.105Z,75.39
2019-03-18T07:53:09.522Z,74.07
2019-03-18T07:55:37.964Z,71.52
2019-03-18T07:58:07.381Z,67.94
2019-03-18T08:00:35.886Z,67.49
2019-03-18T08:03:04.462Z,68.80
2019-03-18T08:05:35.278Z,69.83
2019-03-18T08:08:02.971Z,69.42
2019-03-18T08:10:31.362Z,68.95
2019-03-18T08:12:59.768Z,69.33
2019-03-18T08:15:28.165Z,69.33
2019-03-18T08:17:56.565Z,69.60
2019-03-18T08:20:27.403Z,71.19
2019-03-18T08:22:55.826Z,73.18
2019-03-18T08:25:24.218Z,73.79
2019-03-18T08:27:52.634Z,74.67
2019-03-18T08:30:21.022Z,75.78
2019-03-18T08:32:49.416Z,75.37
2019-03-18T08:35:17.860Z,74.94
2019-03-18T08:37:46.248Z,75.67
2019-03-18T08:40:14.730Z,77.05
2019-03-18T08:42:44.066Z,74.65
2019-03-18T08:45:14.487Z,74.07
2019-03-18T08:47:42.896Z,73.32
2019-03-18T08:50:12.773Z,71.26
2019-03-18T08:52:41.520Z,71.28
2019-03-18T08:55:11.092Z,69.11
2019-03-18T08:57:39.480Z,66.69
2019-03-18T09:00:13.367Z,69.49
2019-03-18T09:02:41.781Z,69.16
2019-03-18T09:05:10.534Z,68.46
2019-03-18T09:07:39.101Z,69.34
2019-03-18T09:10:15.096Z,69.26
2019-03-18T09:12:43.561Z,65.64
2019-03-18T09:15:14.918Z,66.10
2019-03-18T09:17:43.381Z,67.24
2019-03-18T09:20:13.922Z,65.95
2019-03-18T09:22:42.625Z,65.35
2019-03-18T09:25:13.084Z,65.70
2019-03-18T09:27:44.129Z,65.52
2019-03-18T09:30:17.854Z,65.91
2019-03-18T09:32:49.094Z,65.76
2019-03-18T09:35:19.577Z,65.33
2019-03-18T09:37:50.498Z,64.84
2019-03-18T09:40:18.938Z,63.30
2019-03-18T09:42:47.324Z,63.23
2019-03-18T09:45:22.084Z,65.60
2019-03-18T09:47:50.470Z,65.59
2019-03-18T09:50:18.998Z,64.50
2019-03-18T09:52:47.422Z,66.22
2019-03-18T09:55:17.171Z,64.97
2019-03-18T09:57:45.521Z,63.78
2019-03-18T10:00:27.350Z,62.44
2019-03-18T10:02:55.698Z,64.81
2019-03-18T10:05:24.135Z,67.63
2019-03-18T10:07:52.571Z,71.62
2019-03-18T10:10:20.971Z,71.62
2019-03-18T10:12:50.430Z,75.20
2019-03-18T10:15:25.630Z,75.17
2019-03-18T10:17:53.374Z,75.59
2019-03-18T10:20:21.766Z,73.49
2019-03-18T10:22:50.193Z,72.76
2019-03-18T10:25:18.580Z,74.28
2019-03-18T10:27:46.995Z,72.98
2019-03-18T10:30:16.343Z,74.52
2019-03-18T10:32:44.741Z,73.85
2019-03-18T10:35:14.177Z,71.31
2019-03-18T10:37:42.583Z,73.04
2019-03-18T10:40:16.793Z,73.58
2019-03-18T10:42:45.193Z,71.69
2019-03-18T10:45:14.420Z,71.06
2019-03-18T10:47:42.832Z,69.34
2019-03-18T10:50:13.123Z,69.17
2019-03-18T10:52:41.557Z,66.75
2019-03-18T10:55:10.776Z,66.87
2019-03-18T10:57:39.152Z,67.01
2019-03-18T11:00:16.721Z,68.67
2019-03-18T11:02:45.629Z,68.65
2019-03-18T11:05:14.748Z,68.89
2019-03-18T11:07:43.152Z,66.10
2019-03-18T11:10:19.253Z,65.93
2019-03-18T11:12:52.712Z,68.43
2019-03-18T11:15:22.057Z,66.21
2019-03-18T11:17:52.968Z,64.45
2019-03-18T11:20:21.449Z,64.66
2019-03-18T11:22:49.949Z,65.53
2019-03-18T11:25:20.455Z,62.68
2019-03-18T11:27:48.475Z,63.41
2019-03-18T11:30:24.191Z,62.06
2019-03-18T11:32:56.256Z,65.69
2019-03-18T11:35:31.435Z,68.52
2019-03-18T11:38:00.822Z,69.20
2019-03-18T11:40:29.284Z,68.93
2019-03-18T11:42:57.940Z,67.82
2019-03-18T11:45:27.322Z,68.89
2019-03-18T11:47:55.756Z,67.58
2019-03-18T11:50:24.216Z,67.75
2019-03-18T11:52:52.609Z,65.31
2019-03-18T11:55:26.899Z,66.12
2019-03-18T11:57:55.380Z,66.08
2019-03-18T12:00:25.112Z,66.96
2019-03-18T12:02:53.518Z,67.59
2019-03-18T12:05:29.051Z,67.39
2019-03-18T12:07:57.459Z,68.26
2019-03-18T12:10:26.270Z,67.21
2019-03-18T12:12:54.899Z,67.81
2019-03-18T12:15:27.421Z,66.58
2019-03-18T12:17:55.109Z,68.36
2019-03-18T12:20:25.681Z,65.59
2019-03-18T12:22:54.372Z,63.87
2019-03-18T12:25:23.853Z,63.80
2019-03-18T12:27:52.326Z,67.29
2019-03-18T12:30:22.977Z,67.55
2019-03-18T12:32:51.445Z,71.19
2019-03-18T12:35:22.205Z,73.56
2019-03-18T12:37:50.620Z,71.69
2019-03-18T12:40:20.294Z,70.83
2019-03-18T12:42:49.864Z,72.30
2019-03-18T12:45:22.882Z,73.20
2019-03-18T12:47:51.275Z,72.75
2019-03-18T12:50:39.193Z,73.16
2019-03-18T12:52:55.004Z,74.59
2019-03-18T12:55:24.372Z,75.33
2019-03-18T12:57:55.520Z,74.46
2019-03-18T13:00:40.116Z,72.60
2019-03-18T13:03:05.271Z,74.90
2019-03-18T13:05:33.705Z,71.50
2019-03-18T13:08:02.189Z,69.54
2019-03-18T13:10:32.961Z,70.74
2019-03-18T13:13:03.939Z,70.35
2019-03-18T13:15:36.522Z,70.64
2019-03-18T13:18:08.832Z,66.72
2019-03-18T13:20:36.563Z,66.31
2019-03-18T13:23:06.108Z,67.50
2019-03-18T13:25:38.493Z,69.47
2019-03-18T13:28:06.870Z,69.11
2019-03-18T13:30:35.253Z,69.60
2019-03-18T13:33:03.705Z,69.10
2019-03-18T13:35:32.052Z,68.95
2019-03-18T13:38:06.233Z,69.29
2019-03-18T13:40:34.574Z,68.40
2019-03-18T13:43:03.974Z,69.41
2019-03-18T13:45:33.324Z,68.27
2019-03-18T13:48:01.770Z,69.85
2019-03-18T13:50:33.903Z,69.66
2019-03-18T13:53:04.455Z,72.13
2019-03-18T13:55:32.529Z,71.88
2019-03-18T13:58:00.901Z,74.36
2019-03-18T14:00:32.973Z,75.04
2019-03-18T14:03:00.603Z,74.21
2019-03-18T14:05:32.215Z,74.26
2019-03-18T14:08:04.615Z,75.12
2019-03-18T14:10:33.020Z,73.83
2019-03-18T14:13:01.424Z,73.14
2019-03-18T14:15:29.858Z,73.64
2019-03-18T14:18:00.703Z,74.04
2019-03-18T14:20:29.878Z,74.04
2019-03-18T14:22:58.294Z,73.54
2019-03-18T14:25:26.681Z,74.22
2019-03-18T14:27:55.088Z,74.37
2019-03-18T14:30:23.987Z,73.57
2019-03-18T14:32:52.454Z,73.76
2019-03-18T14:35:22.226Z,73.65
2019-03-18T14:37:50.818Z,74.44
2019-03-18T14:40:23.132Z,72.38
2019-03-18T14:42:51.543Z,73.35
2019-03-18T14:45:25.564Z,72.76
2019-03-18T14:47:53.955Z,71.28
2019-03-18T14:50:29.865Z,71.30
2019-03-18T14:53:01.459Z,71.64
2019-03-18T14:55:29.830Z,72.50
2019-03-18T14:57:59.183Z,71.73
2019-03-18T15:00:32.639Z,70.25
2019-03-18T15:03:01.047Z,70.50
2019-03-18T15:05:37.373Z,72.23
2019-03-18T15:08:05.815Z,71.98
2019-03-18T15:10:34.206Z,72.97
2019-03-18T15:13:05.306Z,72.39
2019-03-18T15:15:34.679Z,71.60
2019-03-18T15:18:05.891Z,71.58
2019-03-18T15:20:39.552Z,72.27
2019-03-18T15:23:09.032Z,71.27
2019-03-18T15:25:40.191Z,71.03
2019-03-18T15:28:09.802Z,70.91
2019-03-18T15:30:41.998Z,71.21
2019-03-18T15:33:10.432Z,71.33
2019-03-18T15:35:38.819Z,71.24
2019-03-18T15:38:07.271Z,69.80
2019-03-18T15:40:39.823Z,69.56
2019-03-18T15:43:08.221Z,68.79
2019-03-18T15:45:36.652Z,68.87
2019-03-18T15:48:05.984Z,70.35
2019-03-18T15:50:34.801Z,71.14
2019-03-18T15:53:17.896Z,72.63
2019-03-18T15:55:48.818Z,70.68
2019-03-18T15:58:23.208Z,69.62
2019-03-18T16:00:51.637Z,71.43
2019-03-18T16:03:22.815Z,72.00
2019-03-18T16:05:51.207Z,72.18
2019-03-18T16:08:21.579Z,72.84
2019-03-18T16:10:57.878Z,73.73
2019-03-18T16:13:34.636Z,73.50
2019-03-18T16:16:07.103Z,73.14
2019-03-18T16:18:35.582Z,73.11
2019-03-18T16:21:07.779Z,73.78
2019-03-18T16:23:36.238Z,73.60
2019-03-18T16:26:04.737Z,73.53
2019-03-18T16:28:33.190Z,73.73
2019-03-18T16:31:01.617Z,73.07
2019-03-18T16:33:32.458Z,72.06
2019-03-18T16:36:00.226Z,72.02
2019-03-18T16:38:28.614Z,71.07
2019-03-18T16:40:59.202Z,70.52
2019-03-18T16:43:27.826Z,69.64
2019-03-18T16:45:56.241Z,69.69
2019-03-18T16:48:24.631Z,69.25
2019-03-18T16:50:53.046Z,67.59
2019-03-18T16:53:21.488Z,67.94
2019-03-18T16:55:52.018Z,68.09
2019-03-18T16:58:25.250Z,69.48
2019-03-18T17:00:53.276Z,69.97
2019-03-18T17:03:21.658Z,71.20
2019-03-18T17:05:51.158Z,70.54
2019-03-18T17:08:22.016Z,71.10
2019-03-18T17:10:50.429Z,71.46
2019-03-18T17:13:25.106Z,72.24
2019-03-18T17:15:53.539Z,72.83
2019-03-18T17:18:23.736Z,72.80
2019-03-18T17:20:54.328Z,71.01
2019-03-18T17:23:26.362Z,70.38
2019-03-18T17:25:57.198Z,69.18
2019-03-18T17:28:32.743Z,70.79
2019-03-18T17:31:01.179Z,71.57
2019-03-18T17:33:29.603Z,73.45
2019-03-18T17:36:03.688Z,74.57
2019-03-18T17:38:31.501Z,74.70
2019-03-18T17:40:59.885Z,75.55
2019-03-18T17:43:34.907Z,75.39
2019-03-18T17:46:05.743Z,75.92
2019-03-18T17:48:37.165Z,76.00
2019-03-18T17:51:06.484Z,76.52
2019-03-18T17:53:34.933Z,76.58
2019-03-18T17:56:07.319Z,76.82
2019-03-18T17:58:37.663Z,76.68
2019-03-18T18:01:06.981Z,76.06
2019-03-18T18:03:38.128Z,76.68
2019-03-18T18:06:10.435Z,76.36
2019-03-18T18:08:45.672Z,76.32
2019-03-18T18:11:14.995Z,75.79
2019-03-18T18:13:49.597Z,75.91
2019-03-18T18:16:20.471Z,75.75
2019-03-18T18:18:51.322Z,75.42
2019-03-18T18:21:20.189Z,75.91
2019-03-18T18:23:48.583Z,75.22
2019-03-18T18:26:20.313Z,75.56
2019-03-18T18:28:47.975Z,75.16
2019-03-18T18:31:27.182Z,75.45
2019-03-18T18:33:56.099Z,75.98
2019-03-18T18:36:30.817Z,75.98
2019-03-18T18:38:59.209Z,75.50
2019-03-18T18:41:30.235Z,75.34
2019-03-18T18:43:58.643Z,74.95
2019-03-18T18:46:34.435Z,75.33
2019-03-18T18:49:04.870Z,74.74
2019-03-18T18:51:33.281Z,74.24
2019-03-18T18:54:02.661Z,75.12
2019-03-18T18:56:31.090Z,75.00
2019-03-18T18:59:04.675Z,75.04
2019-03-18T19:01:37.945Z,75.17
2019-03-18T19:04:09.093Z,74.92
2019-03-18T19:06:41.336Z,75.18
2019-03-18T19:09:13.763Z,75.03
2019-03-18T19:11:44.920Z,75.35
2019-03-18T19:14:16.332Z,75.06
2019-03-18T19:16:47.421Z,75.43
2019-03-18T19:19:22.028Z,74.88
2019-03-18T19:21:50.372Z,74.90
2019-03-18T19:24:18.875Z,74.70
2019-03-18T19:26:47.472Z,74.70
2019-03-18T19:29:19.198Z,74.67
2019-03-18T19:32:02.343Z,74.80
2019-03-18T19:34:30.713Z,74.66
2019-03-18T19:36:59.194Z,75.35
2019-03-18T19:39:27.584Z,75.02
2019-03-18T19:42:05.559Z,75.04
2019-03-18T19:44:35.354Z,75.51
2019-03-18T19:47:03.303Z,75.53
2019-03-18T19:49:31.719Z,75.87
2019-03-18T19:52:00.185Z,75.95
2019-03-18T19:54:31.021Z,76.30
2019-03-18T19:56:59.423Z,76.83
2019-03-18T19:59:31.724Z,76.59
2019-03-18T20:02:01.203Z,76.64
2019-03-18T20:04:29.624Z,77.01
2019-03-18T20:06:58.046Z,77.47
2019-03-18T20:09:26.428Z,77.69
2019-03-18T20:12:01.129Z,78.04
2019-03-18T20:14:29.482Z,77.98
2019-03-18T20:17:00.394Z,78.13
2019-03-18T20:19:28.824Z,78.76
2019-03-18T20:21:57.237Z,79.25
2019-03-18T20:24:26.693Z,79.09
2019-03-18T20:26:58.693Z,79.29
2019-03-18T20:29:39.611Z,79.60
2019-03-18T20:32:05.133Z,79.58
2019-03-18T20:34:33.483Z,79.84
2019-03-18T20:37:01.921Z,80.21
2019-03-18T20:39:30.378Z,80.41
2019-03-18T20:41:58.833Z,80.10
2019-03-18T20:44:27.238Z,80.37
2019-03-18T20:46:58.605Z,80.09
2019-03-18T20:49:28.121Z,79.62
2019-03-18T20:52:02.155Z,79.95
2019-03-18T20:54:30.585Z,79.98
2019-03-18T20:56:58.941Z,79.82
2019-03-18T20:59:27.390Z,79.94
2019-03-18T21:01:55.771Z,79.60
2019-03-18T21:04:24.192Z,79.74
2019-03-18T21:06:52.725Z,79.96
2019-03-18T21:09:22.219Z,79.99
2019-03-18T21:11:50.607Z,80.36
2019-03-18T21:14:20.170Z,80.10
2019-03-18T21:16:48.559Z,80.00
2019-03-18T21:19:22.158Z,79.68
2019-03-18T21:21:50.657Z,79.66
2019-03-18T21:24:35.662Z,79.13
2019-03-18T21:27:06.447Z,79.31
2019-03-18T21:29:34.371Z,79.07
2019-03-18T21:32:06.454Z,78.66
2019-03-18T21:34:38.712Z,78.27
2019-03-18T21:40:09.267Z,77.05
2019-03-18T21:42:40.163Z,76.31
2019-03-18T21:45:19.567Z,76.56
2019-03-18T21:47:48.136Z,75.53
2019-03-18T21:50:19.296Z,75.63
2019-03-18T21:52:48.758Z,75.19
2019-03-18T21:55:19.067Z,75.11
2019-03-18T21:57:50.748Z,75.40
2019-03-18T22:00:25.663Z,74.79
2019-03-18T22:02:54.038Z,75.23
2019-03-18T22:05:22.474Z,75.36
2019-03-18T22:07:50.881Z,75.09
2019-03-18T22:10:25.796Z,75.56
2019-03-18T22:12:57.068Z,76.19
2019-03-18T22:15:26.465Z,76.75
2019-03-18T22:17:57.407Z,77.09
2019-03-18T22:20:25.825Z,77.54
2019-03-18T22:22:58.183Z,77.64
2019-03-18T22:25:25.830Z,77.71
2019-03-18T22:27:56.931Z,77.84
2019-03-18T22:30:28.812Z,77.64
2019-03-18T22:33:01.095Z,78.01
2019-03-18T22:35:34.775Z,78.20
2019-03-18T22:38:02.823Z,78.06
2019-03-18T22:40:31.195Z,77.96
2019-03-18T22:42:59.630Z,78.07
2019-03-18T22:45:28.061Z,77.77
2019-03-18T22:47:57.437Z,77.77
2019-03-18T22:50:25.819Z,77.90
2019-03-18T22:52:58.253Z,77.97
2019-03-18T22:55:25.911Z,77.58
2019-03-18T22:57:54.259Z,77.54
2019-03-18T23:00:40.754Z,77.51
2019-03-18T23:03:09.172Z,77.49
2019-03-18T23:05:38.622Z,77.38
2019-03-18T23:08:07.079Z,77.67
2019-03-18T23:10:35.452Z,77.80
2019-03-18T23:13:03.930Z,77.65
2019-03-18T23:15:34.480Z,77.29
2019-03-18T23:18:05.810Z,77.29
2019-03-18T23:20:34.249Z,77.42
2019-03-18T23:23:06.515Z,77.71
2019-03-18T23:25:34.938Z,78.11
2019-03-18T23:28:03.345Z,78.49
2019-03-18T23:30:35.623Z,78.81
2019-03-18T23:33:06.977Z,78.70
2019-03-18T23:35:36.470Z,79.13
2019-03-18T23:38:04.942Z,79.67
2019-03-18T23:40:34.212Z,79.81
2019-03-18T23:43:02.634Z,79.99
2019-03-18T23:45:37.780Z,80.16
2019-03-18T23:48:08.684Z,80.00
2019-03-18T23:50:37.069Z,80.29
2019-03-18T23:53:05.474Z,80.29
2019-03-18T23:55:33.911Z,80.51
2019-03-18T23:58:02.291Z,80.60
